createdAt,value
2022-08-08T00:02:04.091Z,49.65
2022-08-08T00:04:16.351Z,49.59
2022-08-08T00:06:50.028Z,49.45
2022-08-08T00:09:19.080Z,48.69
2022-08-08T00:12:07.612Z,48.90
2022-08-08T00:14:48.299Z,48.00
2022-08-08T00:16:56.079Z,47.55
2022-08-08T00:19:13.868Z,47.70
2022-08-08T00:21:23.774Z,47.39
2022-08-08T00:23:47.727Z,47.32
2022-08-08T00:25:59.129Z,46.81
2022-08-08T00:28:08.162Z,46.89
2022-08-08T00:30:56.105Z,46.89
2022-08-08T00:33:13.474Z,46.58
2022-08-08T00:35:34.692Z,46.90
2022-08-08T00:38:02.354Z,46.86
2022-08-08T00:41:08.857Z,46.83
2022-08-08T00:42:43.116Z,47.05
2022-08-08T00:44:54.730Z,47.01
2022-08-08T00:48:05.070Z,46.88
2022-08-08T00:50:22.687Z,46.76
2022-08-08T00:52:56.369Z,46.88
2022-08-08T00:55:52.556Z,47.00
2022-08-08T00:58:30.643Z,46.87
2022-08-08T01:00:50.420Z,46.87
2022-08-08T01:03:58.096Z,46.69
2022-08-08T01:06:27.745Z,46.97
2022-08-08T01:08:50.257Z,47.03
2022-08-08T01:11:25.494Z,46.88
2022-08-08T01:14:05.021Z,46.84
2022-08-08T01:16:19.781Z,46.78
2022-08-08T01:18:25.367Z,46.95
2022-08-08T01:21:09.369Z,47.11
2022-08-08T01:24:02.870Z,47.08
2022-08-08T01:26:19.247Z,46.91
2022-08-08T01:28:47.229Z,46.97
2022-08-08T01:32:05.622Z,46.76
2022-08-08T01:34:11.486Z,46.74
2022-08-08T01:37:17.581Z,46.90
2022-08-08T01:39:45.241Z,46.71
2022-08-08T01:41:52.567Z,46.44
2022-08-08T01:44:10.144Z,46.32
2022-08-08T01:46:40.646Z,45.99
2022-08-08T01:48:57.408Z,45.70
2022-08-08T01:51:31.974Z,45.67
2022-08-08T01:55:17.606Z,45.62
2022-08-08T01:56:30.805Z,45.37
2022-08-08T01:58:48.673Z,45.23
2022-08-08T02:01:04.115Z,45.24
2022-08-08T02:03:57.529Z,45.15
2022-08-08T02:06:03.060Z,45.13
2022-08-08T02:08:18.086Z,45.08
2022-08-08T02:10:54.550Z,44.94
2022-08-08T02:13:54.525Z,44.94
2022-08-08T02:16:59.576Z,45.17
2022-08-08T02:19:58.024Z,45.36
2022-08-08T02:22:28.277Z,45.35
2022-08-08T02:27:42.299Z,45.33
2022-08-08T02:30:20.787Z,45.60
2022-08-08T02:32:31.338Z,45.75
2022-08-08T02:35:07.496Z,46.10
2022-08-08T02:37:52.278Z,46.06
2022-08-08T02:40:00.879Z,46.36
2022-08-08T02:42:41.935Z,49.93
2022-08-08T02:45:22.470Z,51.63
2022-08-08T02:47:52.007Z,51.92
2022-08-08T02:50:00.401Z,51.96
2022-08-08T02:52:38.758Z,52.63
2022-08-08T02:55:03.220Z,51.71
2022-08-08T02:57:44.570Z,51.17
2022-08-08T03:00:26.478Z,50.14
2022-08-08T03:02:40.321Z,49.66
2022-08-08T03:05:09.478Z,49.65
2022-08-08T03:07:25.093Z,51.86
2022-08-08T03:10:01.518Z,52.61
2022-08-08T03:13:01.930Z,54.27
2022-08-08T03:15:58.108Z,53.99
2022-08-08T03:18:06.877Z,54.85
2022-08-08T03:20:11.735Z,55.36
2022-08-08T03:22:37.529Z,55.21
2022-08-08T03:24:36.602Z,54.01
2022-08-08T03:27:01.461Z,52.90
2022-08-08T03:29:17.130Z,52.82
2022-08-08T03:32:06.266Z,53.45
2022-08-08T03:34:05.954Z,52.20
2022-08-08T03:36:19.681Z,52.43
2022-08-08T03:38:57.942Z,53.18
2022-08-08T03:40:54.236Z,52.38
2022-08-08T03:42:58.807Z,53.04
2022-08-08T03:46:05.095Z,53.05
2022-08-08T03:48:05.729Z,52.20
2022-08-08T03:50:24.568Z,50.72
2022-08-08T03:52:31.215Z,50.73
2022-08-08T03:54:51.791Z,51.59
2022-08-08T03:56:58.534Z,48.42
2022-08-08T03:59:01.194Z,47.87
2022-08-08T04:01:25.952Z,47.80
2022-08-08T04:03:57.351Z,46.57
2022-08-08T04:05:59.039Z,45.82
2022-08-08T04:08:07.591Z,45.11
2022-08-08T04:10:10.478Z,44.70
2022-08-08T04:12:13.480Z,43.87
2022-08-08T04:14:33.421Z,44.13
2022-08-08T04:16:40.772Z,44.22
2022-08-08T04:18:48.558Z,43.62
2022-08-08T04:20:51.800Z,42.66
2022-08-08T04:22:54.408Z,42.91
2022-08-08T04:24:59.840Z,43.27
2022-08-08T04:27:07.554Z,43.26
2022-08-08T04:29:15.086Z,41.81
2022-08-08T04:31:30.811Z,41.94
2022-08-08T04:33:42.126Z,42.52
2022-08-08T04:35:51.028Z,42.34
2022-08-08T04:37:55.435Z,41.98
2022-08-08T04:40:07.038Z,41.68
2022-08-08T04:42:11.298Z,42.21
2022-08-08T04:44:18.373Z,41.75
2022-08-08T04:46:25.065Z,41.75
2022-08-08T04:48:27.814Z,41.54
2022-08-08T04:50:38.715Z,40.81
2022-08-08T04:52:42.737Z,41.05
2022-08-08T04:54:51.144Z,40.67
2022-08-08T04:56:54.722Z,41.20
2022-08-08T04:58:57.321Z,40.71
2022-08-08T05:00:59.947Z,41.12
2022-08-08T05:03:12.588Z,40.58
2022-08-08T05:05:20.335Z,41.18
2022-08-08T05:07:42.638Z,42.41
2022-08-08T05:09:45.599Z,41.35
2022-08-08T05:11:57.026Z,41.91
2022-08-08T05:14:02.239Z,42.34
2022-08-08T05:16:48.209Z,41.39
2022-08-08T05:18:28.335Z,41.93
2022-08-08T05:20:30.934Z,41.70
2022-08-08T05:22:34.080Z,40.45
2022-08-08T05:24:38.649Z,40.20
2022-08-08T05:26:48.733Z,39.58
2022-08-08T05:28:57.131Z,39.83
2022-08-08T05:31:19.258Z,40.03
2022-08-08T05:33:43.971Z,39.51
2022-08-08T05:35:54.340Z,40.30
2022-08-08T05:38:04.597Z,40.19
2022-08-08T05:40:29.278Z,39.44
2022-08-08T05:42:44.896Z,40.19
2022-08-08T05:44:49.224Z,38.95
2022-08-08T05:46:54.865Z,38.46
2022-08-08T05:49:11.261Z,38.19
2022-08-08T05:51:15.591Z,37.80
2022-08-08T05:54:25.797Z,37.71
2022-08-08T05:56:11.510Z,37.79
2022-08-08T05:58:17.759Z,37.86
2022-08-08T06:00:25.835Z,37.28
2022-08-08T06:02:51.866Z,38.00
2022-08-08T06:04:59.135Z,37.36
2022-08-08T06:07:02.684Z,37.52
2022-08-08T06:09:59.105Z,37.30
2022-08-08T06:11:32.152Z,37.63
2022-08-08T06:13:36.366Z,36.25
2022-08-08T06:15:53.465Z,36.46
2022-08-08T06:18:20.599Z,35.14
2022-08-08T06:20:20.857Z,34.99
2022-08-08T06:22:38.799Z,34.81
2022-08-08T06:24:47.055Z,35.71
2022-08-08T06:27:05.492Z,35.04
2022-08-08T06:29:48.526Z,36.07
2022-08-08T06:31:52.304Z,36.04
2022-08-08T06:34:27.506Z,36.95
2022-08-08T06:36:53.520Z,36.54
2022-08-08T06:38:58.980Z,35.83
2022-08-08T06:41:07.487Z,36.72
2022-08-08T06:43:11.498Z,36.64
2022-08-08T06:45:15.257Z,37.70
2022-08-08T06:47:22.149Z,38.05
2022-08-08T06:49:56.480Z,38.45
2022-08-08T06:51:57.757Z,38.79
2022-08-08T06:54:01.626Z,38.87
2022-08-08T06:56:04.260Z,38.26
2022-08-08T06:58:07.144Z,38.20
2022-08-08T07:00:12.573Z,37.39
2022-08-08T07:02:28.663Z,36.93
2022-08-08T07:04:49.707Z,37.55
2022-08-08T07:07:01.138Z,37.29
2022-08-08T07:09:21.064Z,36.57
2022-08-08T07:11:30.231Z,36.87
2022-08-08T07:14:00.680Z,37.16
2022-08-08T07:16:12.480Z,35.85
2022-08-08T07:18:36.788Z,36.47
2022-08-08T07:20:50.413Z,35.86
2022-08-08T07:23:00.079Z,37.45
2022-08-08T07:25:06.749Z,37.25
2022-08-08T07:27:16.393Z,36.84
2022-08-08T07:30:02.217Z,37.41
2022-08-08T07:31:44.580Z,37.30
2022-08-08T07:33:58.842Z,36.37
2022-08-08T07:36:01.977Z,36.06
2022-08-08T07:38:18.397Z,35.09
2022-08-08T07:40:29.666Z,37.28
2022-08-08T07:42:37.706Z,36.55
2022-08-08T07:44:43.715Z,37.66
2022-08-08T07:46:46.761Z,36.37
2022-08-08T07:48:49.687Z,35.02
2022-08-08T07:50:55.156Z,37.06
2022-08-08T07:53:01.346Z,34.44
2022-08-08T07:55:19.360Z,34.96
2022-08-08T07:57:48.507Z,35.48
2022-08-08T07:59:54.585Z,36.01
2022-08-08T08:02:35.444Z,34.45
2022-08-08T08:04:29.531Z,34.02
2022-08-08T08:06:34.088Z,34.05
2022-08-08T08:08:52.373Z,34.19
2022-08-08T08:10:58.803Z,34.17
2022-08-08T08:13:26.011Z,34.51
2022-08-08T08:15:43.538Z,35.79
2022-08-08T08:17:55.427Z,35.61
2022-08-08T08:20:03.028Z,34.50
2022-08-08T08:22:07.821Z,33.87
2022-08-08T08:24:10.850Z,34.13
2022-08-08T08:26:15.345Z,33.50
2022-08-08T08:28:29.963Z,33.66
2022-08-08T08:30:34.015Z,34.67
2022-08-08T08:32:49.526Z,33.74
2022-08-08T08:34:54.404Z,34.42
2022-08-08T08:37:20.226Z,34.06
2022-08-08T08:39:23.585Z,33.65
2022-08-08T08:41:31.138Z,32.59
2022-08-08T08:43:42.492Z,33.59
2022-08-08T08:45:49.426Z,33.05
2022-08-08T08:48:00.821Z,32.85
2022-08-08T08:50:04.136Z,33.51
2022-08-08T08:52:08.108Z,32.51
2022-08-08T08:54:12.955Z,32.20
2022-08-08T08:56:24.004Z,33.60
2022-08-08T08:58:37.899Z,34.97
2022-08-08T09:01:05.062Z,35.71
2022-08-08T09:03:09.320Z,34.76
2022-08-08T09:05:13.817Z,33.71
2022-08-08T09:07:39.624Z,34.32
2022-08-08T09:09:57.497Z,34.13
2022-08-08T09:12:06.285Z,33.89
2022-08-08T09:14:11.699Z,32.43
2022-08-08T09:16:15.738Z,32.05
2022-08-08T09:18:20.961Z,32.63
2022-08-08T09:22:01.169Z,32.51
2022-08-08T09:22:49.829Z,32.39
2022-08-08T09:24:53.944Z,31.32
2022-08-08T09:27:14.945Z,30.31
2022-08-08T09:29:24.995Z,30.61
2022-08-08T09:31:42.662Z,31.45
2022-08-08T09:34:30.307Z,31.59
2022-08-08T09:36:28.602Z,31.03
2022-08-08T09:38:53.389Z,29.79
2022-08-08T09:41:03.515Z,30.47
2022-08-08T09:44:05.578Z,29.92
2022-08-08T09:46:04.122Z,30.59
2022-08-08T09:48:17.904Z,30.62
2022-08-08T09:50:28.197Z,29.91
2022-08-08T09:52:54.203Z,28.25
2022-08-08T09:54:55.514Z,27.38
2022-08-08T09:57:02.799Z,27.26
2022-08-08T09:59:31.918Z,28.24
2022-08-08T10:01:59.363Z,26.87
2022-08-08T10:03:58.095Z,26.63
2022-08-08T10:06:19.310Z,26.69
2022-08-08T10:08:32.957Z,25.68
2022-08-08T10:10:50.037Z,25.92
2022-08-08T10:12:57.470Z,25.20
2022-08-08T10:15:18.026Z,25.71
2022-08-08T10:17:56.526Z,26.66
2022-08-08T10:19:46.164Z,26.51
2022-08-08T10:22:01.957Z,26.05
2022-08-08T10:24:29.314Z,26.62
2022-08-08T10:26:57.520Z,27.35
2022-08-08T10:29:05.721Z,27.63
2022-08-08T10:31:47.568Z,27.87
2022-08-08T10:34:18.507Z,27.83
2022-08-08T10:36:20.385Z,28.17
2022-08-08T10:38:26.535Z,27.07
2022-08-08T10:40:32.342Z,27.24
2022-08-08T10:42:37.385Z,27.47
2022-08-08T10:44:42.135Z,26.63
2022-08-08T10:46:44.666Z,25.79
2022-08-08T10:48:56.867Z,25.69
2022-08-08T10:51:12.366Z,25.23
2022-08-08T10:53:16.448Z,25.17
2022-08-08T10:55:41.218Z,23.40
2022-08-08T10:57:53.057Z,22.51
2022-08-08T10:59:59.050Z,22.93
2022-08-08T11:02:02.708Z,23.87
2022-08-08T11:04:10.613Z,24.15
2022-08-08T11:06:15.967Z,25.03
2022-08-08T11:08:42.960Z,23.51
2022-08-08T11:11:59.841Z,23.31
2022-08-08T11:13:59.875Z,23.62
2022-08-08T11:16:08.006Z,22.42
2022-08-08T11:18:14.451Z,22.79
2022-08-08T11:20:27.732Z,21.91
2022-08-08T11:22:33.177Z,21.82
2022-08-08T11:24:37.794Z,21.57
2022-08-08T11:26:56.275Z,21.41
2022-08-08T11:29:04.926Z,20.37
2022-08-08T11:31:08.658Z,20.70
2022-08-08T11:33:13.109Z,21.34
2022-08-08T11:35:24.880Z,21.12
2022-08-08T11:38:34.386Z,22.10
2022-08-08T11:40:07.004Z,21.37
2022-08-08T11:42:10.484Z,21.16
2022-08-08T11:44:15.125Z,20.37
2022-08-08T11:46:18.688Z,19.78
2022-08-08T11:48:23.302Z,20.16
2022-08-08T11:50:31.049Z,19.23
2022-08-08T11:52:35.889Z,19.57
2022-08-08T11:54:46.399Z,19.71
2022-08-08T11:56:56.632Z,19.71
2022-08-08T11:59:08.192Z,19.17
2022-08-08T12:01:16.347Z,18.35
2022-08-08T12:03:20.865Z,19.51
2022-08-08T12:05:41.629Z,19.16
2022-08-08T12:07:53.135Z,18.61
2022-08-08T12:10:00.486Z,19.01
2022-08-08T12:12:06.143Z,18.71
2022-08-08T12:14:11.795Z,18.55
2022-08-08T12:16:17.304Z,19.40
2022-08-08T12:18:25.483Z,19.17
2022-08-08T12:20:40.390Z,18.52
2022-08-08T12:22:51.202Z,19.45
2022-08-08T12:24:56.195Z,18.98
2022-08-08T12:26:59.396Z,18.65
2022-08-08T12:29:01.952Z,19.08
2022-08-08T12:31:10.640Z,18.88
2022-08-08T12:33:21.288Z,19.22
2022-08-08T12:35:23.925Z,19.04
2022-08-08T12:37:40.047Z,19.05
2022-08-08T12:40:02.182Z,19.33
2022-08-08T12:42:06.979Z,19.63
2022-08-08T12:44:32.319Z,19.48
2022-08-08T12:46:36.302Z,18.51
2022-08-08T12:48:39.118Z,17.33
2022-08-08T12:50:46.722Z,17.37
2022-08-08T12:52:54.477Z,17.32
2022-08-08T12:55:13.198Z,17.14
2022-08-08T12:57:26.354Z,15.91
2022-08-08T12:59:44.611Z,16.79
2022-08-08T13:02:01.706Z,16.68
2022-08-08T13:04:19.287Z,16.42
2022-08-08T13:06:27.383Z,16.61
2022-08-08T13:08:53.453Z,16.07
2022-08-08T13:10:58.693Z,16.62
2022-08-08T13:13:05.825Z,17.57
2022-08-08T13:15:19.470Z,17.19
2022-08-08T13:18:08.644Z,17.21
2022-08-08T13:19:49.770Z,17.96
2022-08-08T13:21:58.307Z,18.59
2022-08-08T13:24:08.311Z,17.96
2022-08-08T13:26:21.697Z,17.16
2022-08-08T13:28:32.791Z,17.32
2022-08-08T13:30:35.556Z,17.32
2022-08-08T13:32:39.959Z,17.30
2022-08-08T13:34:42.601Z,17.23
2022-08-08T13:36:45.481Z,17.19
2022-08-08T13:38:47.995Z,17.14
2022-08-08T13:40:51.427Z,17.41
2022-08-08T13:42:56.032Z,17.13
2022-08-08T13:45:01.310Z,16.60
2022-08-08T13:47:07.436Z,16.56
2022-08-08T13:50:36.846Z,17.36
2022-08-08T13:51:41.861Z,17.46
2022-08-08T13:54:00.273Z,16.87
2022-08-08T13:56:11.290Z,16.59
2022-08-08T13:58:20.759Z,17.19
2022-08-08T14:00:24.627Z,16.94
2022-08-08T14:02:32.835Z,17.83
2022-08-08T14:04:36.748Z,17.23
2022-08-08T14:06:45.589Z,17.22
2022-08-08T14:08:49.747Z,17.63
2022-08-08T14:10:52.505Z,18.04
2022-08-08T14:12:57.068Z,18.80
2022-08-08T14:15:03.134Z,18.93
2022-08-08T14:17:11.851Z,19.82
2022-08-08T14:19:57.739Z,18.20
2022-08-08T14:22:24.214Z,18.66
2022-08-08T14:24:33.809Z,19.40
2022-08-08T14:26:46.322Z,18.71
2022-08-08T14:28:57.426Z,18.20
2022-08-08T14:31:11.550Z,18.24
2022-08-08T14:33:36.547Z,18.68
2022-08-08T14:35:41.690Z,18.86
2022-08-08T14:38:00.845Z,19.19
2022-08-08T14:40:07.129Z,19.37
2022-08-08T14:42:10.128Z,20.79
2022-08-08T14:44:21.214Z,23.25
2022-08-08T14:46:32.765Z,22.39
2022-08-08T14:48:57.095Z,23.31
2022-08-08T14:51:06.943Z,23.97
2022-08-08T14:53:14.562Z,22.88
2022-08-08T14:55:22.402Z,22.88
2022-08-08T14:58:02.379Z,22.11
2022-08-08T15:00:01.954Z,22.29
2022-08-08T15:02:06.806Z,21.92
2022-08-08T15:04:11.426Z,22.22
2022-08-08T15:06:16.549Z,20.70
2022-08-08T15:08:22.516Z,21.33
2022-08-08T15:10:38.466Z,20.94
2022-08-08T15:12:46.875Z,19.82
2022-08-08T15:14:49.772Z,19.72
2022-08-08T15:16:52.383Z,20.71
2022-08-08T15:18:55.241Z,20.11
2022-08-08T15:20:57.855Z,19.54
2022-08-08T15:23:01.642Z,20.44
2022-08-08T15:25:08.625Z,21.11
2022-08-08T15:27:57.787Z,21.61
2022-08-08T15:29:42.819Z,21.78
2022-08-08T15:32:18.112Z,22.30
2022-08-08T15:34:18.685Z,22.86
2022-08-08T15:36:32.745Z,22.58
2022-08-08T15:38:35.367Z,23.16
2022-08-08T15:40:44.368Z,23.72
2022-08-08T15:42:47.578Z,23.45
2022-08-08T15:44:52.271Z,23.32
2022-08-08T15:46:57.084Z,23.05
2022-08-08T15:48:59.764Z,23.37
2022-08-08T15:51:03.156Z,21.78
2022-08-08T15:53:09.330Z,23.60
2022-08-08T15:55:13.824Z,22.72
2022-08-08T15:57:16.532Z,24.19
2022-08-08T15:59:21.067Z,24.56
2022-08-08T16:01:59.555Z,24.05
2022-08-08T16:04:03.723Z,23.64
2022-08-08T16:06:06.540Z,23.34
2022-08-08T16:08:20.168Z,22.86
2022-08-08T16:13:05.868Z,22.65
2022-08-08T16:13:14.269Z,22.06
2022-08-08T16:15:09.972Z,23.91
2022-08-08T16:17:15.297Z,24.64
2022-08-08T16:19:59.549Z,24.19
2022-08-08T16:22:01.540Z,24.05
2022-08-08T16:24:07.005Z,24.24
2022-08-08T16:26:17.538Z,24.08
2022-08-08T16:28:32.613Z,24.39
2022-08-08T16:30:38.390Z,24.29
2022-08-08T16:32:43.138Z,24.69
2022-08-08T16:34:51.242Z,25.88
2022-08-08T16:36:54.035Z,26.42
2022-08-08T16:38:58.039Z,27.37
2022-08-08T16:41:02.626Z,28.03
2022-08-08T16:43:05.776Z,29.01
2022-08-08T16:45:11.478Z,30.54
2022-08-08T16:47:41.705Z,32.32
2022-08-08T16:49:47.783Z,31.36
2022-08-08T16:55:00.530Z,31.82
2022-08-08T16:55:02.368Z,31.52
2022-08-08T16:56:38.042Z,32.52
2022-08-08T16:59:01.054Z,33.22
2022-08-08T17:01:12.052Z,33.65
2022-08-08T17:03:18.134Z,33.24
2022-08-08T17:05:42.400Z,34.29
2022-08-08T17:07:51.260Z,35.22
2022-08-08T17:09:54.335Z,36.26
2022-08-08T17:11:59.424Z,37.02
2022-08-08T17:14:03.434Z,37.77
2022-08-08T17:16:06.533Z,38.17
2022-08-08T17:18:18.429Z,39.22
2022-08-08T17:20:21.527Z,39.41
2022-08-08T17:22:39.228Z,39.95
2022-08-08T17:24:53.630Z,40.48
2022-08-08T17:26:57.900Z,40.88
2022-08-08T17:29:04.235Z,40.38
2022-08-08T17:31:39.031Z,41.52
2022-08-08T17:34:37.435Z,40.82
2022-08-08T17:36:12.560Z,41.09
2022-08-08T17:38:17.697Z,40.91
2022-08-08T17:40:21.782Z,40.81
2022-08-08T17:42:24.607Z,40.85
2022-08-08T17:44:27.269Z,40.57
2022-08-08T17:46:40.254Z,40.94
2022-08-08T17:48:43.595Z,41.54
2022-08-08T17:50:50.544Z,41.22
2022-08-08T17:52:54.091Z,41.51
2022-08-08T17:55:00.409Z,41.53
2022-08-08T17:57:03.185Z,41.89
2022-08-08T17:59:07.769Z,41.53
2022-08-08T18:01:10.424Z,41.26
2022-08-08T18:03:14.153Z,41.39
2022-08-08T18:05:22.995Z,41.50
2022-08-08T18:08:04.222Z,41.61
2022-08-08T18:09:50.218Z,41.12
2022-08-08T18:11:55.747Z,41.18
2022-08-08T18:13:59.073Z,40.69
2022-08-08T18:16:04.592Z,40.62
2022-08-08T18:18:28.195Z,40.13
2022-08-08T18:20:44.559Z,40.29
2022-08-08T18:22:53.868Z,40.16
2022-08-08T18:24:57.513Z,40.51
2022-08-08T18:27:06.216Z,40.63
2022-08-08T18:29:25.816Z,40.38
2022-08-08T18:31:33.042Z,40.87
2022-08-08T18:34:10.644Z,40.68
2022-08-08T18:36:02.679Z,40.95
2022-08-08T18:38:16.863Z,41.35
2022-08-08T18:40:19.820Z,41.75
2022-08-08T18:42:37.755Z,42.12
2022-08-08T18:44:54.953Z,42.17
2022-08-08T18:47:00.748Z,42.13
2022-08-08T18:49:04.009Z,42.33
2022-08-08T18:51:33.366Z,42.55
2022-08-08T18:54:00.234Z,42.18
2022-08-08T18:55:56.075Z,42.22
2022-08-08T18:57:58.775Z,42.23
2022-08-08T19:00:02.877Z,43.04
2022-08-08T19:02:25.004Z,44.16
2022-08-08T19:04:29.636Z,43.47
2022-08-08T19:06:34.041Z,44.03
2022-08-08T19:08:37.624Z,43.97
2022-08-08T19:10:43.180Z,43.78
2022-08-08T19:12:53.041Z,43.81
2022-08-08T19:14:56.283Z,43.93
2022-08-08T19:16:58.996Z,43.97
2022-08-08T19:19:03.974Z,43.76
2022-08-08T19:21:29.365Z,42.93
2022-08-08T19:23:35.790Z,42.85
2022-08-08T19:26:22.535Z,42.29
2022-08-08T19:28:01.234Z,42.33
2022-08-08T19:30:05.168Z,42.43
2022-08-08T19:32:22.847Z,42.45
2022-08-08T19:34:35.634Z,42.85
2022-08-08T19:36:41.849Z,43.15
2022-08-08T19:38:48.276Z,42.98
2022-08-08T19:40:56.249Z,42.81
2022-08-08T19:42:59.139Z,42.72
2022-08-08T19:45:07.149Z,43.25
2022-08-08T19:47:10.269Z,43.73
2022-08-08T19:49:15.060Z,43.77
2022-08-08T19:51:25.141Z,44.64
2022-08-08T19:53:52.030Z,44.89
2022-08-08T19:55:56.390Z,44.66
2022-08-08T19:57:59.087Z,43.79
2022-08-08T20:00:03.510Z,43.69
2022-08-08T20:02:14.301Z,43.17
2022-08-08T20:04:18.095Z,43.63
2022-08-08T20:06:24.982Z,43.12
2022-08-08T20:08:32.099Z,42.76
2022-08-08T20:10:34.943Z,42.82
2022-08-08T20:12:58.954Z,42.97
2022-08-08T20:15:15.163Z,43.32
2022-08-08T20:17:26.943Z,43.32
2022-08-08T20:19:33.465Z,43.53
2022-08-08T20:21:38.445Z,43.80
2022-08-08T20:23:41.216Z,43.88
2022-08-08T20:25:43.924Z,43.75
2022-08-08T20:27:49.445Z,43.72
2022-08-08T20:30:01.078Z,43.11
2022-08-08T20:32:13.193Z,43.23
2022-08-08T20:34:30.341Z,43.69
2022-08-08T20:36:35.516Z,43.91
2022-08-08T20:38:41.940Z,44.20
2022-08-08T20:40:51.127Z,44.81
2022-08-08T20:42:55.539Z,45.26
2022-08-08T20:44:59.070Z,45.27
2022-08-08T20:47:02.907Z,45.29
2022-08-08T20:49:07.534Z,45.06
2022-08-08T20:51:14.445Z,44.89
2022-08-08T20:54:00.214Z,44.49
2022-08-08T20:55:42.410Z,43.96
2022-08-08T20:57:47.790Z,44.08
2022-08-08T20:59:54.284Z,43.89
2022-08-08T21:02:07.161Z,44.34
2022-08-08T21:04:14.355Z,44.50
2022-08-08T21:06:17.643Z,44.65
2022-08-08T21:08:36.134Z,45.13
2022-08-08T21:10:43.346Z,45.32
2022-08-08T21:12:46.865Z,45.82
2022-08-08T21:14:55.856Z,45.44
2022-08-08T21:16:58.640Z,45.70
2022-08-08T21:19:01.838Z,45.83
2022-08-08T21:21:39.796Z,46.03
2022-08-08T21:23:59.296Z,45.93
2022-08-08T21:26:07.282Z,46.09
2022-08-08T21:28:16.187Z,46.06
2022-08-08T21:30:21.922Z,45.93
2022-08-08T21:32:25.806Z,46.03
2022-08-08T21:34:30.083Z,45.71
2022-08-08T21:36:32.867Z,45.73
2022-08-08T21:38:36.057Z,45.67
2022-08-08T21:40:38.675Z,45.81
2022-08-08T21:42:58.222Z,45.68
2022-08-08T21:45:20.833Z,45.99
2022-08-08T21:48:06.844Z,46.24
2022-08-08T21:49:46.215Z,46.88
2022-08-08T21:54:30.979Z,47.67
2022-08-08T21:54:33.582Z,47.15
2022-08-08T21:56:43.356Z,47.51
2022-08-08T21:58:46.342Z,47.86
2022-08-08T22:00:57.667Z,47.98
2022-08-08T22:03:06.985Z,48.15
2022-08-08T22:05:10.920Z,48.27
2022-08-08T22:07:17.784Z,48.40
2022-08-08T22:09:26.971Z,48.48
2022-08-08T22:12:02.136Z,48.41
2022-08-08T22:14:03.409Z,49.00
2022-08-08T22:16:08.797Z,48.73
2022-08-08T22:18:12.492Z,48.94
2022-08-08T22:20:23.729Z,48.92
2022-08-08T22:22:34.518Z,49.11
2022-08-08T22:24:40.982Z,49.65
2022-08-08T22:27:01.388Z,49.55
2022-08-08T22:29:59.092Z,49.70
2022-08-08T22:31:29.500Z,50.06
2022-08-08T22:34:12.013Z,50.25
2022-08-08T22:36:05.429Z,50.17
2022-08-08T22:38:17.728Z,50.35
2022-08-08T22:40:20.643Z,50.19
2022-08-08T22:42:32.138Z,50.26
2022-08-08T22:44:38.016Z,50.35
2022-08-08T22:46:41.195Z,50.33
2022-08-08T22:48:50.770Z,50.68
2022-08-08T22:50:57.230Z,51.26
2022-08-08T22:54:29.266Z,51.79
2022-08-08T22:55:25.288Z,52.18
2022-08-08T22:57:44.152Z,52.46
2022-08-08T22:59:58.986Z,52.76
2022-08-08T23:02:04.662Z,53.10
2022-08-08T23:04:15.743Z,54.03
2022-08-08T23:06:34.902Z,55.00
2022-08-08T23:08:44.518Z,55.60
2022-08-08T23:11:06.473Z,55.97
2022-08-08T23:13:16.033Z,55.73
2022-08-08T23:16:37.715Z,56.41
2022-08-08T23:17:54.041Z,57.13
2022-08-08T23:20:00.550Z,57.61
2022-08-08T23:22:06.719Z,57.85
2022-08-08T23:24:10.916Z,58.21
2022-08-08T23:26:13.637Z,58.20
2022-08-08T23:28:18.902Z,58.00
2022-08-08T23:30:23.676Z,58.05
2022-08-08T23:32:26.572Z,57.99
2022-08-08T23:34:31.077Z,58.01
2022-08-08T23:36:33.831Z,57.89
2022-08-08T23:38:44.399Z,57.88
2022-08-08T23:40:47.485Z,57.89
2022-08-08T23:42:57.013Z,57.59
2022-08-08T23:45:00.365Z,57.76
2022-08-08T23:49:04.179Z,57.34
2022-08-08T23:49:26.803Z,56.18
2022-08-08T23:52:03.698Z,54.85
2022-08-08T23:54:05.003Z,53.42
2022-08-08T23:56:09.261Z,52.59
2022-08-08T23:58:37.849Z,52.24
